createdAt,value
2022-11-05T00:00:32.973Z,1.73
2022-11-05T00:03:18.534Z,2.40
2022-11-05T00:06:07.998Z,2.78
2022-11-05T00:08:53.342Z,2.40
2022-11-05T00:11:40.051Z,2.42
2022-11-05T00:14:25.259Z,2.15
2022-11-05T00:16:51.896Z,2.30
2022-11-05T00:19:18.532Z,2.28
2022-11-05T00:22:03.856Z,2.10
2022-11-05T00:24:49.161Z,2.40
2022-11-05T00:27:15.809Z,1.83
2022-11-05T00:29:42.502Z,2.10
2022-11-05T00:32:09.219Z,2.75
2022-11-05T00:34:35.907Z,2.60
2022-11-05T00:37:02.563Z,2.30
2022-11-05T00:39:29.189Z,2.40
2022-11-05T00:42:14.536Z,2.45
2022-11-05T00:44:59.964Z,2.05
2022-11-05T00:47:45.407Z,3.00
2022-11-05T00:50:12.171Z,2.00
2022-11-05T00:52:57.569Z,2.30
2022-11-05T00:55:38.064Z,2.30
2022-11-05T00:58:12.247Z,1.73
2022-11-05T01:00:41.703Z,2.08
2022-11-05T01:03:11.513Z,1.83
2022-11-05T01:05:41.578Z,2.10
2022-11-05T01:08:09.727Z,2.00
2022-11-05T01:10:44.610Z,2.15
2022-11-05T01:13:13.366Z,1.73
2022-11-05T01:15:40.955Z,1.80
2022-11-05T01:18:07.913Z,1.90
2022-11-05T01:20:34.610Z,2.15
2022-11-05T01:23:01.305Z,2.17
2022-11-05T01:25:28.052Z,2.63
2022-11-05T01:27:54.897Z,2.22
2022-11-05T01:30:22.378Z,2.10
2022-11-05T01:32:49.295Z,2.13
2022-11-05T01:35:17.549Z,2.33
2022-11-05T01:37:44.682Z,2.28
2022-11-05T01:40:19.566Z,2.10
2022-11-05T01:42:46.550Z,2.10
2022-11-05T01:45:25.131Z,2.40
2022-11-05T01:47:58.058Z,1.77
2022-11-05T01:50:33.429Z,1.90
2022-11-05T01:53:15.545Z,2.17
2022-11-05T01:55:47.755Z,2.00
2022-11-05T01:58:19.645Z,2.03
2022-11-05T02:00:46.553Z,2.08
2022-11-05T02:03:16.417Z,2.03
2022-11-05T02:05:44.009Z,1.92
2022-11-05T02:10:55.147Z,2.60
2022-11-05T02:13:22.934Z,2.35
2022-11-05T02:16:19.058Z,2.22
2022-11-05T02:19:04.719Z,2.28
2022-11-05T02:21:43.506Z,1.90
2022-11-05T02:24:53.639Z,2.55
2022-11-05T02:27:53.757Z,2.65
2022-11-05T02:30:31.860Z,2.95
2022-11-05T02:33:43.534Z,2.70
2022-11-05T02:36:31.394Z,2.42
2022-11-05T02:39:14.184Z,2.47
2022-11-05T02:44:51.902Z,2.75
2022-11-05T02:47:35.997Z,3.00
2022-11-05T02:50:19.367Z,3.00
2022-11-05T02:52:59.670Z,3.17
2022-11-05T02:55:34.050Z,2.67
2022-11-05T02:58:04.191Z,3.20
2022-11-05T03:00:50.865Z,3.15
2022-11-05T03:03:26.343Z,2.88
2022-11-05T03:06:07.827Z,3.42
2022-11-05T03:08:43.294Z,2.97
2022-11-05T03:11:18.568Z,3.67
2022-11-05T03:14:02.649Z,3.92
2022-11-05T03:16:57.128Z,3.50
2022-11-05T03:19:45.847Z,3.75
2022-11-05T03:22:17.546Z,4.22
2022-11-05T03:24:52.379Z,4.40
2022-11-05T03:27:26.312Z,4.03
2022-11-05T03:30:06.256Z,4.35
2022-11-05T03:32:35.911Z,4.30
2022-11-05T03:35:08.442Z,4.70
2022-11-05T03:37:39.520Z,4.15
2022-11-05T03:40:09.043Z,4.57
2022-11-05T03:42:38.672Z,4.85
2022-11-05T03:45:15.502Z,4.00
2022-11-05T03:47:45.517Z,4.32
2022-11-05T03:50:41.110Z,4.22
2022-11-05T03:53:29.842Z,4.45
2022-11-05T03:56:07.660Z,4.78
2022-11-05T03:58:35.625Z,4.18
2022-11-05T04:01:03.565Z,4.00
2022-11-05T04:03:36.104Z,4.40
2022-11-05T04:06:23.271Z,4.18
2022-11-05T04:09:08.685Z,3.72
2022-11-05T04:11:54.210Z,4.70
2022-11-05T04:14:20.969Z,3.72
2022-11-05T04:17:06.072Z,3.95
2022-11-05T04:19:53.060Z,3.90
2022-11-05T04:22:39.004Z,4.80
2022-11-05T04:25:05.772Z,4.60
2022-11-05T04:27:32.450Z,4.90
2022-11-05T04:30:17.725Z,3.92
2022-11-05T04:32:59.727Z,4.35
2022-11-05T04:35:29.205Z,4.63
2022-11-05T04:37:56.042Z,4.20
2022-11-05T04:40:22.938Z,4.30
2022-11-05T04:42:49.625Z,3.75
2022-11-05T04:45:16.356Z,4.22
2022-11-05T04:47:43.118Z,4.32
2022-11-05T04:50:11.982Z,4.00
2022-11-05T04:52:39.349Z,4.00
2022-11-05T04:55:07.125Z,4.20
2022-11-05T04:57:33.982Z,4.10
2022-11-05T05:00:00.762Z,4.47
2022-11-05T05:02:27.553Z,3.60
2022-11-05T05:04:54.343Z,3.97
2022-11-05T05:07:21.005Z,4.60
2022-11-05T05:09:47.663Z,4.25
2022-11-05T05:12:14.568Z,3.80
2022-11-05T05:14:41.236Z,3.92
2022-11-05T05:17:07.869Z,3.90
2022-11-05T05:19:54.513Z,4.20
2022-11-05T05:22:21.317Z,4.22
2022-11-05T05:24:52.567Z,4.00
2022-11-05T05:27:20.078Z,4.30
2022-11-05T05:29:46.770Z,3.75
2022-11-05T05:32:13.427Z,3.38
2022-11-05T05:34:40.159Z,3.75
2022-11-05T05:37:06.909Z,3.80
2022-11-05T05:39:33.578Z,4.10
2022-11-05T05:42:00.268Z,3.95
2022-11-05T05:44:26.966Z,4.03
2022-11-05T05:46:55.245Z,4.13
2022-11-05T05:49:21.951Z,4.35
2022-11-05T05:51:49.643Z,3.88
2022-11-05T05:54:16.623Z,3.45
2022-11-05T05:56:44.459Z,3.70
2022-11-05T05:59:11.651Z,3.88
2022-11-05T06:01:38.542Z,3.25
2022-11-05T06:04:05.571Z,3.35
2022-11-05T06:06:32.244Z,3.75
2022-11-05T06:08:58.885Z,4.07
2022-11-05T06:11:25.888Z,3.63
2022-11-05T06:13:52.620Z,4.85
2022-11-05T06:16:19.409Z,5.18
2022-11-05T06:18:46.657Z,4.55
2022-11-05T06:21:15.761Z,4.40
2022-11-05T06:23:44.481Z,4.05
2022-11-05T06:26:16.791Z,4.85
2022-11-05T06:28:43.826Z,4.32
2022-11-05T06:31:12.022Z,3.58
2022-11-05T06:33:39.587Z,4.05
2022-11-05T06:36:07.568Z,4.15
2022-11-05T06:38:36.386Z,4.53
2022-11-05T06:41:08.983Z,4.95
2022-11-05T06:43:37.072Z,6.18
2022-11-05T06:46:03.960Z,5.07
2022-11-05T06:48:30.681Z,4.82
2022-11-05T06:50:57.365Z,4.20
2022-11-05T06:53:24.134Z,4.22
2022-11-05T06:55:50.854Z,4.85
2022-11-05T06:58:17.577Z,6.32
2022-11-05T07:00:44.335Z,6.18
2022-11-05T07:03:12.616Z,5.28
2022-11-05T07:05:47.866Z,6.03
2022-11-05T07:08:15.220Z,5.13
2022-11-05T07:10:41.926Z,5.30
2022-11-05T07:13:09.180Z,4.75
2022-11-05T07:15:36.640Z,5.30
2022-11-05T07:18:05.109Z,5.25
2022-11-05T07:20:34.345Z,5.47
2022-11-05T07:23:05.821Z,5.63
2022-11-05T07:25:33.823Z,5.75
2022-11-05T07:28:00.685Z,5.22
2022-11-05T07:30:28.369Z,5.50
2022-11-05T07:32:55.663Z,5.50
2022-11-05T07:35:22.838Z,6.00
2022-11-05T07:37:51.638Z,5.70
2022-11-05T07:40:21.703Z,5.93
2022-11-05T07:42:54.744Z,5.80
2022-11-05T07:45:21.775Z,6.55
2022-11-05T07:47:50.449Z,5.68
2022-11-05T07:50:19.082Z,6.72
2022-11-05T07:52:46.184Z,5.55
2022-11-05T07:55:13.354Z,6.85
2022-11-05T07:57:44.729Z,6.05
2022-11-05T08:00:16.826Z,5.85
2022-11-05T08:02:43.774Z,6.05
2022-11-05T08:05:10.843Z,6.18
2022-11-05T08:07:37.500Z,5.38
2022-11-05T08:10:05.680Z,6.05
2022-11-05T08:12:33.998Z,5.95
2022-11-05T08:15:00.660Z,6.05
2022-11-05T08:17:27.382Z,6.65
2022-11-05T08:19:54.123Z,6.47
2022-11-05T08:22:21.402Z,6.97
2022-11-05T08:24:48.068Z,6.03
2022-11-05T08:27:15.205Z,6.13
2022-11-05T08:29:41.874Z,6.32
2022-11-05T08:32:08.601Z,7.13
2022-11-05T08:34:35.339Z,7.65
2022-11-05T08:37:02.352Z,6.50
2022-11-05T08:39:29.427Z,6.82
2022-11-05T08:41:56.106Z,5.70
2022-11-05T08:44:22.793Z,6.53
2022-11-05T08:46:49.573Z,6.75
2022-11-05T08:49:16.664Z,7.35
2022-11-05T08:51:46.292Z,6.43
2022-11-05T08:54:13.322Z,6.45
2022-11-05T08:56:40.209Z,7.13
2022-11-05T08:59:07.023Z,7.10
2022-11-05T09:01:34.379Z,7.20
2022-11-05T09:04:01.303Z,6.30
2022-11-05T09:06:28.798Z,6.93
2022-11-05T09:08:55.633Z,6.93
2022-11-05T09:11:22.326Z,7.32
2022-11-05T09:13:49.073Z,11.38
2022-11-05T09:16:21.099Z,7.18
2022-11-05T09:18:48.264Z,6.30
2022-11-05T09:21:15.400Z,6.90
2022-11-05T09:23:42.078Z,6.18
2022-11-05T09:26:10.333Z,7.32
2022-11-05T09:28:37.330Z,7.53
2022-11-05T09:31:08.702Z,7.05
2022-11-05T09:33:37.718Z,7.07
2022-11-05T09:36:05.354Z,6.82
2022-11-05T09:38:34.792Z,6.45
2022-11-05T09:41:07.277Z,5.93
2022-11-05T09:43:44.412Z,6.50
2022-11-05T09:46:25.479Z,6.63
2022-11-05T09:49:02.133Z,6.32
2022-11-05T09:51:29.417Z,5.43
2022-11-05T09:53:59.360Z,5.90
2022-11-05T09:56:33.793Z,5.63
2022-11-05T09:59:06.098Z,5.38
2022-11-05T10:01:37.486Z,5.20
2022-11-05T10:04:17.521Z,5.70
2022-11-05T10:07:05.630Z,5.68
2022-11-05T10:09:53.848Z,5.70
2022-11-05T10:12:30.245Z,5.78
2022-11-05T10:15:05.552Z,5.65
2022-11-05T10:17:38.771Z,5.63
2022-11-05T10:20:23.358Z,4.88
2022-11-05T10:22:56.632Z,4.40
2022-11-05T10:25:27.713Z,4.45
2022-11-05T10:27:56.965Z,4.85
2022-11-05T10:30:24.039Z,5.53
2022-11-05T10:32:56.081Z,4.47
2022-11-05T10:35:24.957Z,4.18
2022-11-05T10:37:53.474Z,3.78
2022-11-05T10:40:47.841Z,4.45
2022-11-05T10:43:20.749Z,4.18
2022-11-05T10:46:21.145Z,4.35
2022-11-05T10:49:22.091Z,4.25
2022-11-05T10:51:56.106Z,4.53
2022-11-05T10:54:26.336Z,3.88
2022-11-05T10:56:53.099Z,3.55
2022-11-05T10:59:30.455Z,4.47
2022-11-05T11:02:34.281Z,4.32
2022-11-05T11:05:01.025Z,3.78
2022-11-05T11:07:27.760Z,4.20
2022-11-05T11:09:54.594Z,4.30
2022-11-05T11:12:40.905Z,4.15
2022-11-05T11:15:20.265Z,3.70
2022-11-05T11:17:47.765Z,4.35
2022-11-05T11:20:26.477Z,4.85
2022-11-05T11:23:13.743Z,4.35
2022-11-05T11:26:03.899Z,4.40
2022-11-05T11:28:39.973Z,4.45
2022-11-05T11:31:14.118Z,4.88
2022-11-05T11:33:46.673Z,4.32
2022-11-05T11:36:17.008Z,4.72
2022-11-05T11:38:43.936Z,4.40
2022-11-05T11:41:27.431Z,3.80
2022-11-05T11:43:59.362Z,4.35
2022-11-05T11:46:30.429Z,3.92
2022-11-05T11:48:57.508Z,4.15
2022-11-05T11:51:40.405Z,4.60
2022-11-05T11:54:20.728Z,4.20
2022-11-05T11:56:48.480Z,3.95
2022-11-05T11:59:40.872Z,5.07
2022-11-05T12:02:36.805Z,4.63
2022-11-05T12:05:17.709Z,5.35
2022-11-05T12:07:52.839Z,5.63
2022-11-05T12:10:33.996Z,6.20
2022-11-05T12:13:20.784Z,5.65
2022-11-05T12:15:58.090Z,5.45
2022-11-05T12:18:33.728Z,6.10
2022-11-05T12:21:34.636Z,5.45
2022-11-05T12:24:16.535Z,5.43
2022-11-05T12:27:11.018Z,5.88
2022-11-05T12:30:07.892Z,5.43
2022-11-05T12:32:54.216Z,4.60
2022-11-05T12:35:58.142Z,5.82
2022-11-05T12:38:35.101Z,4.93
2022-11-05T12:41:43.278Z,4.82
2022-11-05T12:44:22.804Z,4.53
2022-11-05T12:47:14.831Z,3.78
2022-11-05T12:50:12.028Z,4.63
2022-11-05T12:53:08.176Z,3.30
2022-11-05T12:55:42.788Z,3.58
2022-11-05T12:58:29.023Z,4.13
2022-11-05T13:01:00.247Z,3.95
2022-11-05T13:03:55.074Z,4.30
2022-11-05T13:06:27.425Z,4.10
2022-11-05T13:09:02.338Z,4.50
2022-11-05T13:11:43.268Z,4.57
2022-11-05T13:14:23.834Z,4.32
2022-11-05T13:17:13.608Z,3.63
2022-11-05T13:19:56.878Z,4.20
2022-11-05T13:22:43.068Z,4.57
2022-11-05T13:25:19.983Z,4.10
2022-11-05T13:28:05.381Z,5.30
2022-11-05T13:30:39.267Z,4.15
2022-11-05T13:33:11.839Z,4.78
2022-11-05T13:36:17.007Z,4.00
2022-11-05T13:38:59.123Z,4.65
2022-11-05T13:41:37.579Z,5.00
2022-11-05T13:44:35.152Z,5.38
2022-11-05T13:47:01.838Z,4.78
2022-11-05T13:50:00.562Z,4.97
2022-11-05T13:52:57.786Z,4.97
2022-11-05T13:55:40.530Z,4.65
2022-11-05T13:58:13.138Z,4.32
2022-11-05T14:01:21.243Z,4.40
2022-11-05T14:03:50.356Z,4.40
2022-11-05T14:06:43.550Z,3.97
2022-11-05T14:09:16.495Z,4.03
2022-11-05T14:11:49.953Z,4.00
2022-11-05T14:14:25.996Z,4.10
2022-11-05T14:17:12.765Z,4.10
2022-11-05T14:20:01.100Z,3.83
2022-11-05T14:22:32.704Z,4.20
2022-11-05T14:25:01.092Z,4.00
2022-11-05T14:27:36.604Z,4.20
2022-11-05T14:30:41.903Z,3.80
2022-11-05T14:33:32.745Z,3.92
2022-11-05T14:36:21.501Z,3.17
2022-11-05T14:38:54.355Z,3.40
2022-11-05T14:41:21.860Z,3.67
2022-11-05T14:44:01.278Z,3.40
2022-11-05T14:46:44.960Z,3.60
2022-11-05T14:49:21.744Z,3.50
2022-11-05T14:51:51.508Z,4.13
2022-11-05T14:54:44.002Z,3.42
2022-11-05T14:57:35.043Z,4.45
2022-11-05T15:00:02.556Z,3.38
2022-11-05T15:02:38.713Z,3.65
2022-11-05T15:05:49.913Z,3.53
2022-11-05T15:08:34.454Z,3.40
2022-11-05T15:11:27.498Z,4.47
2022-11-05T15:13:54.102Z,3.55
2022-11-05T15:16:25.915Z,3.50
2022-11-05T15:18:55.879Z,3.70
2022-11-05T15:21:24.175Z,3.10
2022-11-05T15:23:56.205Z,3.60
2022-11-05T15:26:44.245Z,3.78
2022-11-05T15:29:22.019Z,3.30
2022-11-05T15:31:50.113Z,3.50
2022-11-05T15:34:31.909Z,4.10
2022-11-05T15:37:22.996Z,3.87
2022-11-05T15:39:51.939Z,3.42
2022-11-05T15:42:22.251Z,3.67
2022-11-05T15:44:51.546Z,4.40
2022-11-05T15:47:21.606Z,6.72
2022-11-05T15:49:55.871Z,5.72
2022-11-05T15:52:37.361Z,6.93
2022-11-05T15:55:17.929Z,5.30
2022-11-05T15:57:50.939Z,5.68
2022-11-05T16:00:26.835Z,5.40
2022-11-05T16:03:05.805Z,5.38
2022-11-05T16:05:42.823Z,5.82
2022-11-05T16:08:19.305Z,6.10
2022-11-05T16:10:52.368Z,5.72
2022-11-05T16:13:37.524Z,5.90
2022-11-05T16:16:16.224Z,6.55
2022-11-05T16:18:45.773Z,5.18
2022-11-05T16:21:18.796Z,5.25
2022-11-05T16:23:49.867Z,4.85
2022-11-05T16:26:55.777Z,5.18
2022-11-05T16:29:22.797Z,5.38
2022-11-05T16:31:51.404Z,4.13
2022-11-05T16:34:37.600Z,4.53
2022-11-05T16:37:06.342Z,4.90
2022-11-05T16:39:33.400Z,5.35
2022-11-05T16:42:00.126Z,5.32
2022-11-05T16:44:26.825Z,4.57
2022-11-05T16:46:53.711Z,4.47
2022-11-05T16:49:21.176Z,4.88
2022-11-05T16:51:47.831Z,4.63
2022-11-05T16:54:14.566Z,4.25
2022-11-05T16:56:42.748Z,4.60
2022-11-05T16:59:12.865Z,4.35
2022-11-05T17:01:42.090Z,3.58
2022-11-05T17:04:11.529Z,4.43
2022-11-05T17:06:38.271Z,4.45
2022-11-05T17:09:05.009Z,4.32
2022-11-05T17:11:31.674Z,4.72
2022-11-05T17:13:58.328Z,4.35
2022-11-05T17:16:26.221Z,4.63
2022-11-05T17:18:52.953Z,4.00
2022-11-05T17:21:19.626Z,4.47
2022-11-05T17:23:46.468Z,6.63
2022-11-05T17:26:13.974Z,6.50
2022-11-05T17:28:40.942Z,5.10
2022-11-05T17:31:12.917Z,5.40
2022-11-05T17:33:40.068Z,4.97
2022-11-05T17:36:08.515Z,9.25
2022-11-05T17:38:35.383Z,5.53
2022-11-05T17:41:09.259Z,5.45
2022-11-05T17:43:36.042Z,5.97
2022-11-05T17:46:10.244Z,4.78
2022-11-05T17:48:37.977Z,4.88
2022-11-05T17:51:07.873Z,4.65
2022-11-05T17:53:34.569Z,4.53
2022-11-05T17:56:01.258Z,4.80
2022-11-05T17:58:28.293Z,4.72
2022-11-05T18:00:54.940Z,5.10
2022-11-05T18:03:21.757Z,4.80
2022-11-05T18:05:48.481Z,4.35
2022-11-05T18:08:15.173Z,4.88
2022-11-05T18:10:42.146Z,4.45
2022-11-05T18:13:09.945Z,4.97
2022-11-05T18:15:40.843Z,5.07
2022-11-05T18:18:08.225Z,5.30
2022-11-05T18:20:34.950Z,4.85
2022-11-05T18:23:01.937Z,4.70
2022-11-05T18:25:28.721Z,5.35
2022-11-05T18:27:55.791Z,4.75
2022-11-05T18:30:22.526Z,5.38
2022-11-05T18:32:50.951Z,5.03
2022-11-05T18:35:17.896Z,5.43
2022-11-05T18:37:44.793Z,6.25
2022-11-05T18:40:12.044Z,6.10
2022-11-05T18:42:39.131Z,5.05
2022-11-05T18:45:07.257Z,5.18
2022-11-05T18:47:34.163Z,4.95
2022-11-05T18:50:01.322Z,6.10
2022-11-05T18:52:31.393Z,4.85
2022-11-05T18:54:58.781Z,4.93
2022-11-05T18:57:26.100Z,5.10
2022-11-05T18:59:52.890Z,4.65
2022-11-05T19:02:19.882Z,4.85
2022-11-05T19:05:13.938Z,5.75
2022-11-05T19:07:37.049Z,4.80
2022-11-05T19:10:04.479Z,5.05
2022-11-05T19:12:31.242Z,5.53
2022-11-05T19:15:02.060Z,5.10
2022-11-05T19:17:31.328Z,5.97
2022-11-05T19:19:58.344Z,5.30
2022-11-05T19:22:25.878Z,5.50
2022-11-05T19:24:52.613Z,5.57
2022-11-05T19:27:19.804Z,5.30
2022-11-05T19:29:47.389Z,6.03
2022-11-05T19:32:14.486Z,5.57
2022-11-05T19:34:41.473Z,5.20
2022-11-05T19:37:08.600Z,5.30
2022-11-05T19:39:36.082Z,5.32
2022-11-05T19:42:04.052Z,5.22
2022-11-05T19:44:31.574Z,5.60
2022-11-05T19:46:58.794Z,5.93
2022-11-05T19:49:27.996Z,6.90
2022-11-05T19:51:55.321Z,6.75
2022-11-05T19:54:22.200Z,11.05
2022-11-05T19:56:51.116Z,5.57
2022-11-05T19:59:18.054Z,7.38
2022-11-05T20:01:44.999Z,6.05
2022-11-05T20:04:11.935Z,7.43
2022-11-05T20:06:40.017Z,7.45
2022-11-05T20:09:22.638Z,6.10
2022-11-05T20:11:52.335Z,6.55
2022-11-05T20:14:19.071Z,7.88
2022-11-05T20:16:46.998Z,5.75
2022-11-05T20:19:16.157Z,7.40
2022-11-05T20:21:44.296Z,6.05
2022-11-05T20:24:13.232Z,8.57
2022-11-05T20:26:40.490Z,5.72
2022-11-05T20:29:07.317Z,10.25
2022-11-05T20:31:34.053Z,6.20
2022-11-05T20:34:00.762Z,8.20
2022-11-05T20:36:27.547Z,8.00
2022-11-05T20:38:57.843Z,8.95
2022-11-05T20:41:25.785Z,8.13
2022-11-05T20:43:52.551Z,5.00
2022-11-05T20:46:21.228Z,7.80
2022-11-05T20:48:48.089Z,7.25
2022-11-05T20:51:18.726Z,6.50
2022-11-05T20:53:46.314Z,6.93
2022-11-05T20:56:25.025Z,6.45
2022-11-05T20:58:53.990Z,7.20
2022-11-05T21:01:20.849Z,5.95
2022-11-05T21:03:48.189Z,6.10
2022-11-05T21:06:15.489Z,6.85
2022-11-05T21:08:43.029Z,6.95
2022-11-05T21:11:10.695Z,7.65
2022-11-05T21:13:38.145Z,7.32
2022-11-05T21:16:07.219Z,6.28
2022-11-05T21:18:36.186Z,6.85
2022-11-05T21:21:12.035Z,6.53
2022-11-05T21:23:38.816Z,8.00
2022-11-05T21:26:07.284Z,7.10
2022-11-05T21:28:34.388Z,6.90
2022-11-05T21:31:02.450Z,7.47
2022-11-05T21:33:29.481Z,5.55
2022-11-05T21:35:56.833Z,6.55
2022-11-05T21:38:23.706Z,6.55
2022-11-05T21:40:50.375Z,7.13
2022-11-05T21:43:17.756Z,6.47
2022-11-05T21:45:45.239Z,5.65
2022-11-05T21:48:12.736Z,7.43
2022-11-05T21:50:59.088Z,6.20
2022-11-05T21:53:45.182Z,5.00
2022-11-05T21:56:40.821Z,5.32
2022-11-05T21:59:30.438Z,5.18
2022-11-05T22:02:01.522Z,7.63
2022-11-05T22:04:36.750Z,6.57
2022-11-05T22:07:04.715Z,7.60
2022-11-05T22:09:31.790Z,5.97
2022-11-05T22:11:59.420Z,6.97
2022-11-05T22:14:26.885Z,6.30
2022-11-05T22:16:53.912Z,4.95
2022-11-05T22:19:21.279Z,6.97
2022-11-05T22:21:47.995Z,5.50
2022-11-05T22:24:15.257Z,5.80
2022-11-05T22:26:42.768Z,6.50
2022-11-05T22:29:10.672Z,5.68
2022-11-05T22:31:37.382Z,5.75
2022-11-05T22:34:05.881Z,5.22
2022-11-05T22:36:33.934Z,4.95
2022-11-05T22:39:01.319Z,5.28
2022-11-05T22:41:28.203Z,5.43
2022-11-05T22:43:55.698Z,5.10
2022-11-05T22:46:25.456Z,4.75
2022-11-05T22:48:53.026Z,5.55
2022-11-05T22:51:25.123Z,4.38
2022-11-05T22:53:52.031Z,5.07
2022-11-05T22:56:21.095Z,5.30
2022-11-05T22:58:48.452Z,4.85
2022-11-05T23:01:15.849Z,3.72
2022-11-05T23:03:44.484Z,4.90
2022-11-05T23:06:47.904Z,4.00
2022-11-05T23:09:49.900Z,5.15
2022-11-05T23:12:29.349Z,4.38
2022-11-05T23:14:57.875Z,4.95
2022-11-05T23:17:43.729Z,4.78
2022-11-05T23:20:35.066Z,4.82
2022-11-05T23:23:20.542Z,5.10
2022-11-05T23:25:47.347Z,4.50
2022-11-05T23:28:15.086Z,4.60
2022-11-05T23:31:04.119Z,4.57
2022-11-05T23:33:34.334Z,4.43
2022-11-05T23:36:20.271Z,4.90
2022-11-05T23:38:46.975Z,4.63
2022-11-05T23:41:32.248Z,5.20
2022-11-05T23:44:17.746Z,4.63
2022-11-05T23:47:03.257Z,4.82
2022-11-05T23:49:29.956Z,4.55
2022-11-05T23:51:56.661Z,4.18
2022-11-05T23:54:23.333Z,4.70
2022-11-05T23:56:49.989Z,4.72
2022-11-05T23:59:16.707Z,5.03
